Terminal Aerodrome Forecast
Issued by NWS

Home | Current Version | Previous Version | Text Only | Print | Product List | Glossary On
Versions: 1 2 3 4 5 6 7 8 9 10 11 12 13 14 15 16 17 18 19 20 21 22 23 24 25 26 27 28 29 30
000
FTUS46 KMTR 011503 AAA
TAFSFO
TAF AMD
KSFO 011503Z 0115/0218 28008KT P6SM FEW015
     FM012100 28019G28KT P6SM FEW020
     FM020400 28018KT P6SM FEW020
     FM020800 24010KT P6SM SCT080=

USA.gov is the U.S. government's official web portal to all federal, state and local government web resources and services.